sensor_id;sensor_type;location;lat;lon;timestamp;P1;durP1;ratioP1;P2;durP2;ratioP2
38083;SDS011;23894;51.466;7.444;2024-02-04T00:00:35;12.88;;;7.50;;
38083;SDS011;23894;51.466;7.444;2024-02-04T00:02:38;9.98;;;7.22;;
38083;SDS011;23894;51.466;7.444;2024-02-04T00:04:40;10.60;;;7.25;;
38083;SDS011;23894;51.466;7.444;2024-02-04T00:06:43;11.75;;;6.90;;
38083;SDS011;23894;51.466;7.444;2024-02-04T00:08:47;10.10;;;6.88;;
38083;SDS011;23894;51.466;7.444;2024-02-04T00:10:49;11.20;;;7.22;;
38083;SDS011;23894;51.466;7.444;2024-02-04T00:12:50;9.52;;;6.22;;
38083;SDS011;23894;51.466;7.444;2024-02-04T00:14:51;10.82;;;6.70;;
38083;SDS011;23894;51.466;7.444;2024-02-04T00:16:54;9.70;;;5.90;;
38083;SDS011;23894;51.466;7.444;2024-02-04T00:18:58;9.30;;;5.90;;
38083;SDS011;23894;51.466;7.444;2024-02-04T00:21:00;8.10;;;5.72;;
38083;SDS011;23894;51.466;7.444;2024-02-04T00:23:01;7.53;;;5.20;;
38083;SDS011;23894;51.466;7.444;2024-02-04T00:25:02;7.75;;;5.25;;
38083;SDS011;23894;51.466;7.444;2024-02-04T00:27:05;7.05;;;4.80;;
38083;SDS011;23894;51.466;7.444;2024-02-04T00:29:07;9.10;;;5.55;;
38083;SDS011;23894;51.466;7.444;2024-02-04T00:31:09;8.40;;;5.13;;
38083;SDS011;23894;51.466;7.444;2024-02-04T00:33:11;8.70;;;5.35;;
38083;SDS011;23894;51.466;7.444;2024-02-04T00:35:14;7.72;;;4.75;;
38083;SDS011;23894;51.466;7.444;2024-02-04T00:37:16;8.07;;;4.85;;
38083;SDS011;23894;51.466;7.444;2024-02-04T00:39:19;8.35;;;5.18;;
38083;SDS011;23894;51.466;7.444;2024-02-04T00:41:22;8.43;;;5.03;;
38083;SDS011;23894;51.466;7.444;2024-02-04T00:43:25;7.55;;;4.78;;
38083;SDS011;23894;51.466;7.444;2024-02-04T00:45:28;7.93;;;5.10;;
38083;SDS011;23894;51.466;7.444;2024-02-04T00:47:30;7.35;;;4.43;;
38083;SDS011;23894;51.466;7.444;2024-02-04T00:49:32;7.35;;;3.97;;
38083;SDS011;23894;51.466;7.444;2024-02-04T00:51:35;6.65;;;4.30;;
38083;SDS011;23894;51.466;7.444;2024-02-04T00:53:37;6.28;;;3.80;;
38083;SDS011;23894;51.466;7.444;2024-02-04T00:55:39;6.05;;;3.40;;
38083;SDS011;23894;51.466;7.444;2024-02-04T00:57:42;5.65;;;3.50;;
38083;SDS011;23894;51.466;7.444;2024-02-04T00:59:43;7.63;;;3.30;;
38083;SDS011;23894;51.466;7.444;2024-02-04T01:01:45;5.78;;;3.45;;
38083;SDS011;23894;51.466;7.444;2024-02-04T01:03:47;5.55;;;3.15;;
38083;SDS011;23894;51.466;7.444;2024-02-04T01:05:50;6.40;;;3.55;;
38083;SDS011;23894;51.466;7.444;2024-02-04T01:07:52;5.53;;;3.03;;
38083;SDS011;23894;51.466;7.444;2024-02-04T01:09:53;4.97;;;2.90;;
38083;SDS011;23894;51.466;7.444;2024-02-04T01:11:54;5.45;;;2.97;;
38083;SDS011;23894;51.466;7.444;2024-02-04T01:13:55;4.95;;;2.78;;
38083;SDS011;23894;51.466;7.444;2024-02-04T01:15:56;5.33;;;2.70;;
38083;SDS011;23894;51.466;7.444;2024-02-04T01:17:58;4.97;;;2.83;;
38083;SDS011;23894;51.466;7.444;2024-02-04T01:20:00;5.60;;;2.60;;
38083;SDS011;23894;51.466;7.444;2024-02-04T01:22:03;5.93;;;2.95;;
38083;SDS011;23894;51.466;7.444;2024-02-04T01:24:07;6.15;;;2.75;;
38083;SDS011;23894;51.466;7.444;2024-02-04T01:26:08;7.20;;;2.88;;
38083;SDS011;23894;51.466;7.444;2024-02-04T01:28:11;6.50;;;2.60;;
38083;SDS011;23894;51.466;7.444;2024-02-04T01:30:14;5.25;;;2.80;;
38083;SDS011;23894;51.466;7.444;2024-02-04T01:32:16;6.25;;;2.58;;
38083;SDS011;23894;51.466;7.444;2024-02-04T01:34:18;5.82;;;2.88;;
38083;SDS011;23894;51.466;7.444;2024-02-04T01:36:19;5.82;;;2.58;;
38083;SDS011;23894;51.466;7.444;2024-02-04T01:38:22;4.68;;;2.15;;
38083;SDS011;23894;51.466;7.444;2024-02-04T01:40:26;4.28;;;1.80;;
38083;SDS011;23894;51.466;7.444;2024-02-04T01:42:28;3.72;;;1.65;;
38083;SDS011;23894;51.466;7.444;2024-02-04T01:44:30;4.80;;;1.50;;
38083;SDS011;23894;51.466;7.444;2024-02-04T01:46:32;3.33;;;1.30;;
38083;SDS011;23894;51.466;7.444;2024-02-04T01:48:35;3.50;;;1.40;;
38083;SDS011;23894;51.466;7.444;2024-02-04T01:50:38;3.22;;;1.38;;
38083;SDS011;23894;51.466;7.444;2024-02-04T01:52:39;3.05;;;1.50;;
38083;SDS011;23894;51.466;7.444;2024-02-04T01:54:42;3.28;;;1.40;;
38083;SDS011;23894;51.466;7.444;2024-02-04T01:56:46;3.08;;;1.52;;
38083;SDS011;23894;51.466;7.444;2024-02-04T01:58:50;3.10;;;1.40;;
38083;SDS011;23894;51.466;7.444;2024-02-04T02:00:54;2.83;;;1.38;;
38083;SDS011;23894;51.466;7.444;2024-02-04T02:02:55;3.40;;;1.40;;
38083;SDS011;23894;51.466;7.444;2024-02-04T02:04:58;2.90;;;1.20;;
38083;SDS011;23894;51.466;7.444;2024-02-04T02:07:01;2.58;;;1.25;;
38083;SDS011;23894;51.466;7.444;2024-02-04T02:09:04;3.53;;;1.40;;
38083;SDS011;23894;51.466;7.444;2024-02-04T02:11:11;2.75;;;1.13;;
38083;SDS011;23894;51.466;7.444;2024-02-04T02:13:27;3.03;;;1.20;;
38083;SDS011;23894;51.466;7.444;2024-02-04T02:15:37;2.72;;;1.27;;
38083;SDS011;23894;51.466;7.444;2024-02-04T02:17:45;3.10;;;1.30;;
38083;SDS011;23894;51.466;7.444;2024-02-04T02:20:00;3.17;;;1.50;;
38083;SDS011;23894;51.466;7.444;2024-02-04T02:22:37;3.77;;;1.50;;
38083;SDS011;23894;51.466;7.444;2024-02-04T02:24:42;3.33;;;1.45;;
38083;SDS011;23894;51.466;7.444;2024-02-04T02:26:55;2.77;;;1.20;;
38083;SDS011;23894;51.466;7.444;2024-02-04T02:28:58;3.25;;;1.48;;
38083;SDS011;23894;51.466;7.444;2024-02-04T02:30:59;3.67;;;1.67;;
38083;SDS011;23894;51.466;7.444;2024-02-04T02:33:01;4.10;;;2.03;;
38083;SDS011;23894;51.466;7.444;2024-02-04T02:35:05;4.33;;;2.13;;
38083;SDS011;23894;51.466;7.444;2024-02-04T02:39:30;5.38;;;2.60;;
38083;SDS011;23894;51.466;7.444;2024-02-04T02:41:36;5.45;;;2.70;;
38083;SDS011;23894;51.466;7.444;2024-02-04T02:43:41;4.50;;;2.60;;
38083;SDS011;23894;51.466;7.444;2024-02-04T02:45:48;5.50;;;2.80;;
38083;SDS011;23894;51.466;7.444;2024-02-04T02:47:51;5.18;;;3.00;;
38083;SDS011;23894;51.466;7.444;2024-02-04T02:49:55;5.63;;;3.40;;
38083;SDS011;23894;51.466;7.444;2024-02-04T02:51:58;5.78;;;3.72;;
38083;SDS011;23894;51.466;7.444;2024-02-04T02:54:02;6.30;;;4.20;;
38083;SDS011;23894;51.466;7.444;2024-02-04T02:56:04;7.20;;;4.30;;
38083;SDS011;23894;51.466;7.444;2024-02-04T02:58:08;6.97;;;4.43;;
38083;SDS011;23894;51.466;7.444;2024-02-04T03:00:11;7.55;;;4.50;;
38083;SDS011;23894;51.466;7.444;2024-02-04T03:02:15;8.52;;;5.55;;
38083;SDS011;23894;51.466;7.444;2024-02-04T03:04:19;8.10;;;5.90;;
38083;SDS011;23894;51.466;7.444;2024-02-04T03:06:22;8.23;;;5.83;;
38083;SDS011;23894;51.466;7.444;2024-02-04T03:08:26;10.63;;;6.50;;
38083;SDS011;23894;51.466;7.444;2024-02-04T03:10:28;8.35;;;6.00;;
38083;SDS011;23894;51.466;7.444;2024-02-04T03:12:30;9.52;;;6.35;;
38083;SDS011;23894;51.466;7.444;2024-02-04T03:14:31;9.00;;;6.60;;
38083;SDS011;23894;51.466;7.444;2024-02-04T03:16:32;9.07;;;6.43;;
38083;SDS011;23894;51.466;7.444;2024-02-04T03:18:33;10.32;;;7.55;;
38083;SDS011;23894;51.466;7.444;2024-02-04T03:20:37;10.13;;;7.10;;
38083;SDS011;23894;51.466;7.444;2024-02-04T03:22:39;10.93;;;7.28;;
38083;SDS011;23894;51.466;7.444;2024-02-04T03:24:41;12.57;;;8.13;;
38083;SDS011;23894;51.466;7.444;2024-02-04T03:26:43;11.38;;;8.77;;
38083;SDS011;23894;51.466;7.444;2024-02-04T03:28:46;11.90;;;8.75;;
38083;SDS011;23894;51.466;7.444;2024-02-04T03:30:49;13.27;;;9.43;;
38083;SDS011;23894;51.466;7.444;2024-02-04T03:32:50;13.23;;;10.27;;
38083;SDS011;23894;51.466;7.444;2024-02-04T03:34:51;12.95;;;9.95;;
38083;SDS011;23894;51.466;7.444;2024-02-04T03:36:53;13.30;;;9.40;;
38083;SDS011;23894;51.466;7.444;2024-02-04T03:38:56;14.77;;;10.50;;
38083;SDS011;23894;51.466;7.444;2024-02-04T03:40:58;15.43;;;10.60;;
38083;SDS011;23894;51.466;7.444;2024-02-04T03:43:00;14.63;;;10.77;;
38083;SDS011;23894;51.466;7.444;2024-02-04T03:45:04;16.30;;;10.97;;
38083;SDS011;23894;51.466;7.444;2024-02-04T03:47:07;16.50;;;10.85;;
38083;SDS011;23894;51.466;7.444;2024-02-04T03:49:09;16.95;;;11.70;;
38083;SDS011;23894;51.466;7.444;2024-02-04T03:51:18;18.67;;;12.45;;
38083;SDS011;23894;51.466;7.444;2024-02-04T03:53:21;17.90;;;12.50;;
38083;SDS011;23894;51.466;7.444;2024-02-04T03:55:28;20.00;;;12.95;;
38083;SDS011;23894;51.466;7.444;2024-02-04T03:57:32;15.60;;;12.20;;
38083;SDS011;23894;51.466;7.444;2024-02-04T03:59:35;17.45;;;12.38;;
38083;SDS011;23894;51.466;7.444;2024-02-04T04:01:38;16.02;;;12.27;;
38083;SDS011;23894;51.466;7.444;2024-02-04T04:03:40;16.95;;;12.20;;
38083;SDS011;23894;51.466;7.444;2024-02-04T04:05:41;17.45;;;12.88;;
38083;SDS011;23894;51.466;7.444;2024-02-04T04:07:44;17.98;;;12.63;;
38083;SDS011;23894;51.466;7.444;2024-02-04T04:09:48;18.65;;;12.90;;
38083;SDS011;23894;51.466;7.444;2024-02-04T04:11:50;18.10;;;13.52;;
38083;SDS011;23894;51.466;7.444;2024-02-04T04:13:51;19.58;;;14.20;;
38083;SDS011;23894;51.466;7.444;2024-02-04T04:15:53;18.33;;;13.05;;
38083;SDS011;23894;51.466;7.444;2024-02-04T04:17:57;17.60;;;12.93;;
38083;SDS011;23894;51.466;7.444;2024-02-04T04:19:59;16.80;;;12.68;;
38083;SDS011;23894;51.466;7.444;2024-02-04T04:22:01;16.25;;;12.35;;
38083;SDS011;23894;51.466;7.444;2024-02-04T04:24:03;15.52;;;12.02;;
38083;SDS011;23894;51.466;7.444;2024-02-04T04:26:05;17.77;;;12.20;;
38083;SDS011;23894;51.466;7.444;2024-02-04T04:28:08;14.55;;;11.63;;
38083;SDS011;23894;51.466;7.444;2024-02-04T04:30:11;18.02;;;12.15;;
38083;SDS011;23894;51.466;7.444;2024-02-04T04:32:13;15.70;;;11.73;;
38083;SDS011;23894;51.466;7.444;2024-02-04T04:34:16;16.75;;;11.75;;
38083;SDS011;23894;51.466;7.444;2024-02-04T04:36:21;15.82;;;12.77;;
38083;SDS011;23894;51.466;7.444;2024-02-04T04:38:24;15.53;;;12.53;;
38083;SDS011;23894;51.466;7.444;2024-02-04T04:40:28;17.90;;;12.30;;
38083;SDS011;23894;51.466;7.444;2024-02-04T04:42:34;17.27;;;12.93;;
38083;SDS011;23894;51.466;7.444;2024-02-04T04:44:36;16.90;;;12.53;;
38083;SDS011;23894;51.466;7.444;2024-02-04T04:46:38;16.20;;;12.73;;
38083;SDS011;23894;51.466;7.444;2024-02-04T04:48:45;16.07;;;11.97;;
38083;SDS011;23894;51.466;7.444;2024-02-04T04:50:48;17.02;;;12.80;;
38083;SDS011;23894;51.466;7.444;2024-02-04T04:52:51;16.48;;;12.27;;
38083;SDS011;23894;51.466;7.444;2024-02-04T04:54:55;14.38;;;11.90;;
38083;SDS011;23894;51.466;7.444;2024-02-04T04:56:57;14.45;;;11.43;;
38083;SDS011;23894;51.466;7.444;2024-02-04T04:59:00;15.15;;;10.70;;
38083;SDS011;23894;51.466;7.444;2024-02-04T05:01:01;14.20;;;10.73;;
38083;SDS011;23894;51.466;7.444;2024-02-04T05:03:04;14.40;;;10.18;;
38083;SDS011;23894;51.466;7.444;2024-02-04T05:05:06;13.68;;;9.68;;
38083;SDS011;23894;51.466;7.444;2024-02-04T05:07:09;14.25;;;9.55;;
38083;SDS011;23894;51.466;7.444;2024-02-04T05:09:15;14.47;;;10.00;;
38083;SDS011;23894;51.466;7.444;2024-02-04T05:11:19;14.43;;;10.43;;
38083;SDS011;23894;51.466;7.444;2024-02-04T05:13:21;14.73;;;11.15;;
38083;SDS011;23894;51.466;7.444;2024-02-04T05:15:23;16.65;;;11.45;;
38083;SDS011;23894;51.466;7.444;2024-02-04T05:17:26;17.27;;;11.18;;
38083;SDS011;23894;51.466;7.444;2024-02-04T05:19:28;13.98;;;11.70;;
38083;SDS011;23894;51.466;7.444;2024-02-04T05:21:29;18.17;;;12.60;;
38083;SDS011;23894;51.466;7.444;2024-02-04T05:23:30;18.05;;;13.40;;
38083;SDS011;23894;51.466;7.444;2024-02-04T05:25:32;16.60;;;13.73;;
38083;SDS011;23894;51.466;7.444;2024-02-04T05:27:35;17.05;;;13.27;;
38083;SDS011;23894;51.466;7.444;2024-02-04T05:29:38;16.20;;;13.25;;
38083;SDS011;23894;51.466;7.444;2024-02-04T05:31:43;20.48;;;14.10;;
38083;SDS011;23894;51.466;7.444;2024-02-04T05:33:46;17.73;;;13.15;;
38083;SDS011;23894;51.466;7.444;2024-02-04T05:35:48;17.23;;;13.05;;
38083;SDS011;23894;51.466;7.444;2024-02-04T05:37:51;17.58;;;13.52;;
38083;SDS011;23894;51.466;7.444;2024-02-04T05:39:55;18.40;;;13.57;;
38083;SDS011;23894;51.466;7.444;2024-02-04T05:41:57;16.83;;;12.95;;
38083;SDS011;23894;51.466;7.444;2024-02-04T05:43:59;17.08;;;13.32;;
38083;SDS011;23894;51.466;7.444;2024-02-04T05:46:03;19.27;;;14.15;;
38083;SDS011;23894;51.466;7.444;2024-02-04T05:48:07;21.13;;;13.63;;
38083;SDS011;23894;51.466;7.444;2024-02-04T05:50:10;16.98;;;13.38;;
38083;SDS011;23894;51.466;7.444;2024-02-04T05:52:14;19.42;;;12.68;;
38083;SDS011;23894;51.466;7.444;2024-02-04T05:54:16;17.17;;;12.85;;
38083;SDS011;23894;51.466;7.444;2024-02-04T05:56:17;18.05;;;12.98;;
38083;SDS011;23894;51.466;7.444;2024-02-04T05:58:23;16.83;;;12.55;;
38083;SDS011;23894;51.466;7.444;2024-02-04T06:00:26;18.13;;;12.68;;
38083;SDS011;23894;51.466;7.444;2024-02-04T06:02:29;16.80;;;12.75;;
38083;SDS011;23894;51.466;7.444;2024-02-04T06:04:32;18.95;;;12.73;;
38083;SDS011;23894;51.466;7.444;2024-02-04T06:06:34;22.40;;;13.18;;
38083;SDS011;23894;51.466;7.444;2024-02-04T06:08:38;15.77;;;12.57;;
38083;SDS011;23894;51.466;7.444;2024-02-04T06:10:39;17.83;;;12.80;;
38083;SDS011;23894;51.466;7.444;2024-02-04T06:12:43;17.17;;;11.90;;
38083;SDS011;23894;51.466;7.444;2024-02-04T06:14:45;17.73;;;11.98;;
38083;SDS011;23894;51.466;7.444;2024-02-04T06:16:47;17.60;;;11.70;;
38083;SDS011;23894;51.466;7.444;2024-02-04T06:18:48;20.38;;;11.95;;
38083;SDS011;23894;51.466;7.444;2024-02-04T06:20:50;18.02;;;12.68;;
38083;SDS011;23894;51.466;7.444;2024-02-04T06:22:51;17.75;;;12.90;;
38083;SDS011;23894;51.466;7.444;2024-02-04T06:24:53;17.00;;;13.10;;
38083;SDS011;23894;51.466;7.444;2024-02-04T06:26:57;18.27;;;12.93;;
38083;SDS011;23894;51.466;7.444;2024-02-04T06:29:00;18.80;;;13.13;;
38083;SDS011;23894;51.466;7.444;2024-02-04T06:31:01;17.98;;;13.95;;
38083;SDS011;23894;51.466;7.444;2024-02-04T06:33:06;20.45;;;15.30;;
38083;SDS011;23894;51.466;7.444;2024-02-04T06:35:09;19.75;;;15.23;;
38083;SDS011;23894;51.466;7.444;2024-02-04T06:37:12;19.23;;;15.32;;
38083;SDS011;23894;51.466;7.444;2024-02-04T06:39:14;22.17;;;16.25;;
38083;SDS011;23894;51.466;7.444;2024-02-04T06:41:17;21.77;;;16.65;;
38083;SDS011;23894;51.466;7.444;2024-02-04T06:43:19;21.42;;;15.68;;
38083;SDS011;23894;51.466;7.444;2024-02-04T06:45:22;22.60;;;16.17;;
38083;SDS011;23894;51.466;7.444;2024-02-04T06:47:24;20.77;;;16.02;;
38083;SDS011;23894;51.466;7.444;2024-02-04T06:49:26;21.75;;;15.90;;
38083;SDS011;23894;51.466;7.444;2024-02-04T06:51:28;24.77;;;16.20;;
38083;SDS011;23894;51.466;7.444;2024-02-04T06:53:30;22.45;;;15.65;;
38083;SDS011;23894;51.466;7.444;2024-02-04T06:55:33;21.95;;;14.80;;
38083;SDS011;23894;51.466;7.444;2024-02-04T06:57:37;19.38;;;14.02;;
38083;SDS011;23894;51.466;7.444;2024-02-04T06:59:50;22.17;;;14.77;;
38083;SDS011;23894;51.466;7.444;2024-02-04T07:01:51;19.40;;;13.85;;
38083;SDS011;23894;51.466;7.444;2024-02-04T07:03:54;19.77;;;13.73;;
38083;SDS011;23894;51.466;7.444;2024-02-04T07:05:57;17.88;;;13.00;;
38083;SDS011;23894;51.466;7.444;2024-02-04T07:07:59;20.40;;;13.63;;
38083;SDS011;23894;51.466;7.444;2024-02-04T07:10:02;18.60;;;12.90;;
38083;SDS011;23894;51.466;7.444;2024-02-04T07:12:04;18.13;;;12.73;;
38083;SDS011;23894;51.466;7.444;2024-02-04T07:14:08;18.45;;;12.52;;
38083;SDS011;23894;51.466;7.444;2024-02-04T07:16:10;19.10;;;12.17;;
38083;SDS011;23894;51.466;7.444;2024-02-04T07:18:12;18.45;;;12.38;;
38083;SDS011;23894;51.466;7.444;2024-02-04T07:20:17;16.45;;;11.48;;
38083;SDS011;23894;51.466;7.444;2024-02-04T07:22:21;19.23;;;12.02;;
38083;SDS011;23894;51.466;7.444;2024-02-04T07:24:23;16.67;;;11.40;;
38083;SDS011;23894;51.466;7.444;2024-02-04T07:26:27;13.65;;;10.00;;
38083;SDS011;23894;51.466;7.444;2024-02-04T07:28:31;13.93;;;9.70;;
38083;SDS011;23894;51.466;7.444;2024-02-04T07:30:33;13.82;;;9.32;;
38083;SDS011;23894;51.466;7.444;2024-02-04T07:32:35;14.98;;;9.68;;
38083;SDS011;23894;51.466;7.444;2024-02-04T07:34:37;14.82;;;10.02;;
38083;SDS011;23894;51.466;7.444;2024-02-04T07:36:39;16.85;;;10.10;;
38083;SDS011;23894;51.466;7.444;2024-02-04T07:38:41;14.88;;;10.80;;
38083;SDS011;23894;51.466;7.444;2024-02-04T07:40:44;15.15;;;10.57;;
38083;SDS011;23894;51.466;7.444;2024-02-04T07:42:48;16.60;;;10.82;;
38083;SDS011;23894;51.466;7.444;2024-02-04T07:44:49;15.27;;;11.00;;
38083;SDS011;23894;51.466;7.444;2024-02-04T07:46:50;13.88;;;10.00;;
38083;SDS011;23894;51.466;7.444;2024-02-04T07:48:51;15.93;;;10.98;;
38083;SDS011;23894;51.466;7.444;2024-02-04T07:50:53;15.73;;;10.82;;
38083;SDS011;23894;51.466;7.444;2024-02-04T07:52:57;16.52;;;10.75;;
38083;SDS011;23894;51.466;7.444;2024-02-04T07:55:01;15.57;;;11.02;;
38083;SDS011;23894;51.466;7.444;2024-02-04T07:57:04;15.80;;;10.98;;
38083;SDS011;23894;51.466;7.444;2024-02-04T07:59:08;14.50;;;10.55;;
38083;SDS011;23894;51.466;7.444;2024-02-04T08:01:09;12.88;;;9.00;;
38083;SDS011;23894;51.466;7.444;2024-02-04T08:03:11;12.57;;;9.27;;
38083;SDS011;23894;51.466;7.444;2024-02-04T08:05:14;13.13;;;8.85;;
38083;SDS011;23894;51.466;7.444;2024-02-04T08:07:16;12.93;;;8.30;;
38083;SDS011;23894;51.466;7.444;2024-02-04T08:09:21;13.70;;;9.02;;
38083;SDS011;23894;51.466;7.444;2024-02-04T08:11:25;10.95;;;7.60;;
38083;SDS011;23894;51.466;7.444;2024-02-04T08:13:26;12.90;;;7.83;;
38083;SDS011;23894;51.466;7.444;2024-02-04T08:15:27;13.07;;;7.60;;
38083;SDS011;23894;51.466;7.444;2024-02-04T08:17:30;11.88;;;7.45;;
38083;SDS011;23894;51.466;7.444;2024-02-04T08:19:31;10.33;;;7.03;;
38083;SDS011;23894;51.466;7.444;2024-02-04T08:21:32;9.85;;;6.75;;
38083;SDS011;23894;51.466;7.444;2024-02-04T08:23:35;10.88;;;6.47;;
38083;SDS011;23894;51.466;7.444;2024-02-04T08:25:36;10.10;;;6.30;;
38083;SDS011;23894;51.466;7.444;2024-02-04T08:27:37;10.07;;;6.23;;
38083;SDS011;23894;51.466;7.444;2024-02-04T08:29:39;10.10;;;7.03;;
38083;SDS011;23894;51.466;7.444;2024-02-04T08:31:40;9.70;;;6.25;;
38083;SDS011;23894;51.466;7.444;2024-02-04T08:33:41;9.50;;;6.40;;
38083;SDS011;23894;51.466;7.444;2024-02-04T08:35:42;10.27;;;5.70;;
38083;SDS011;23894;51.466;7.444;2024-02-04T08:37:45;8.68;;;5.25;;
38083;SDS011;23894;51.466;7.444;2024-02-04T08:39:46;8.30;;;5.20;;
38083;SDS011;23894;51.466;7.444;2024-02-04T08:41:49;7.07;;;4.90;;
38083;SDS011;23894;51.466;7.444;2024-02-04T08:43:50;7.68;;;4.93;;
38083;SDS011;23894;51.466;7.444;2024-02-04T08:45:51;9.05;;;4.88;;
38083;SDS011;23894;51.466;7.444;2024-02-04T08:47:52;8.35;;;4.60;;
38083;SDS011;23894;51.466;7.444;2024-02-04T08:49:53;7.32;;;4.45;;
38083;SDS011;23894;51.466;7.444;2024-02-04T08:51:55;7.47;;;4.47;;
38083;SDS011;23894;51.466;7.444;2024-02-04T08:53:56;7.93;;;4.23;;
38083;SDS011;23894;51.466;7.444;2024-02-04T08:56:00;6.75;;;4.07;;
38083;SDS011;23894;51.466;7.444;2024-02-04T08:58:01;6.35;;;4.10;;
38083;SDS011;23894;51.466;7.444;2024-02-04T09:00:02;7.32;;;4.22;;
38083;SDS011;23894;51.466;7.444;2024-02-04T09:02:03;7.05;;;4.40;;
38083;SDS011;23894;51.466;7.444;2024-02-04T09:04:05;8.70;;;4.20;;
38083;SDS011;23894;51.466;7.444;2024-02-04T09:06:06;6.57;;;4.07;;
38083;SDS011;23894;51.466;7.444;2024-02-04T09:08:08;6.63;;;3.63;;
38083;SDS011;23894;51.466;7.444;2024-02-04T09:10:10;8.27;;;4.30;;
38083;SDS011;23894;51.466;7.444;2024-02-04T09:12:12;7.65;;;3.60;;
38083;SDS011;23894;51.466;7.444;2024-02-04T09:14:13;6.38;;;2.90;;
38083;SDS011;23894;51.466;7.444;2024-02-04T09:16:14;6.35;;;3.20;;
38083;SDS011;23894;51.466;7.444;2024-02-04T09:18:15;4.97;;;2.67;;
38083;SDS011;23894;51.466;7.444;2024-02-04T09:20:17;6.72;;;3.13;;
38083;SDS011;23894;51.466;7.444;2024-02-04T09:22:18;5.03;;;2.80;;
38083;SDS011;23894;51.466;7.444;2024-02-04T09:24:21;5.20;;;2.80;;
38083;SDS011;23894;51.466;7.444;2024-02-04T09:26:22;5.80;;;2.70;;
38083;SDS011;23894;51.466;7.444;2024-02-04T09:28:23;7.00;;;3.00;;
38083;SDS011;23894;51.466;7.444;2024-02-04T09:30:24;6.03;;;3.08;;
38083;SDS011;23894;51.466;7.444;2024-02-04T09:32:26;5.97;;;2.92;;
38083;SDS011;23894;51.466;7.444;2024-02-04T09:34:26;6.90;;;2.90;;
38083;SDS011;23894;51.466;7.444;2024-02-04T09:36:28;6.90;;;3.30;;
38083;SDS011;23894;51.466;7.444;2024-02-04T09:38:30;7.23;;;3.07;;
38083;SDS011;23894;51.466;7.444;2024-02-04T09:40:31;6.50;;;3.60;;
38083;SDS011;23894;51.466;7.444;2024-02-04T09:42:34;7.97;;;3.13;;
38083;SDS011;23894;51.466;7.444;2024-02-04T09:44:35;6.22;;;3.38;;
38083;SDS011;23894;51.466;7.444;2024-02-04T09:46:39;7.53;;;3.90;;
38083;SDS011;23894;51.466;7.444;2024-02-04T09:48:40;5.88;;;3.60;;
38083;SDS011;23894;51.466;7.444;2024-02-04T09:50:42;6.38;;;3.00;;
38083;SDS011;23894;51.466;7.444;2024-02-04T09:52:43;5.57;;;3.15;;
38083;SDS011;23894;51.466;7.444;2024-02-04T09:54:49;6.40;;;3.33;;
38083;SDS011;23894;51.466;7.444;2024-02-04T09:56:50;6.72;;;3.33;;
38083;SDS011;23894;51.466;7.444;2024-02-04T09:58:53;7.13;;;4.40;;
38083;SDS011;23894;51.466;7.444;2024-02-04T10:00:56;7.53;;;5.40;;
38083;SDS011;23894;51.466;7.444;2024-02-04T10:02:57;10.20;;;6.25;;
38083;SDS011;23894;51.466;7.444;2024-02-04T10:04:58;9.77;;;6.60;;
38083;SDS011;23894;51.466;7.444;2024-02-04T10:06:59;12.15;;;6.85;;
38083;SDS011;23894;51.466;7.444;2024-02-04T10:09:01;10.90;;;6.55;;
38083;SDS011;23894;51.466;7.444;2024-02-04T10:11:04;9.75;;;6.85;;
38083;SDS011;23894;51.466;7.444;2024-02-04T10:13:08;9.57;;;6.60;;
38083;SDS011;23894;51.466;7.444;2024-02-04T10:15:10;9.10;;;6.38;;
38083;SDS011;23894;51.466;7.444;2024-02-04T10:17:13;9.85;;;6.72;;
38083;SDS011;23894;51.466;7.444;2024-02-04T10:19:17;9.45;;;6.70;;
38083;SDS011;23894;51.466;7.444;2024-02-04T10:21:18;10.32;;;6.97;;
38083;SDS011;23894;51.466;7.444;2024-02-04T10:23:20;8.73;;;6.40;;
38083;SDS011;23894;51.466;7.444;2024-02-04T10:25:20;10.50;;;6.50;;
38083;SDS011;23894;51.466;7.444;2024-02-04T10:27:23;11.50;;;6.97;;
38083;SDS011;23894;51.466;7.444;2024-02-04T10:29:27;8.90;;;6.20;;
38083;SDS011;23894;51.466;7.444;2024-02-04T10:31:28;9.00;;;6.50;;
38083;SDS011;23894;51.466;7.444;2024-02-04T10:33:32;8.33;;;6.00;;
38083;SDS011;23894;51.466;7.444;2024-02-04T10:35:33;8.50;;;5.45;;
38083;SDS011;23894;51.466;7.444;2024-02-04T10:37:34;8.35;;;5.80;;
38083;SDS011;23894;51.466;7.444;2024-02-04T10:39:35;9.38;;;6.00;;
38083;SDS011;23894;51.466;7.444;2024-02-04T10:41:37;8.70;;;5.82;;
38083;SDS011;23894;51.466;7.444;2024-02-04T10:43:42;9.18;;;6.25;;
38083;SDS011;23894;51.466;7.444;2024-02-04T10:45:43;8.23;;;5.75;;
38083;SDS011;23894;51.466;7.444;2024-02-04T10:47:46;8.85;;;5.15;;
38083;SDS011;23894;51.466;7.444;2024-02-04T10:49:51;9.30;;;5.65;;
38083;SDS011;23894;51.466;7.444;2024-02-04T10:51:55;9.35;;;5.50;;
38083;SDS011;23894;51.466;7.444;2024-02-04T10:53:58;8.02;;;5.28;;
38083;SDS011;23894;51.466;7.444;2024-02-04T10:55:59;7.25;;;5.13;;
38083;SDS011;23894;51.466;7.444;2024-02-04T10:58:04;7.80;;;5.10;;
38083;SDS011;23894;51.466;7.444;2024-02-04T11:00:06;7.15;;;5.28;;
38083;SDS011;23894;51.466;7.444;2024-02-04T11:02:11;8.18;;;5.20;;
38083;SDS011;23894;51.466;7.444;2024-02-04T11:04:12;8.00;;;5.40;;
38083;SDS011;23894;51.466;7.444;2024-02-04T11:06:15;7.63;;;5.05;;
38083;SDS011;23894;51.466;7.444;2024-02-04T11:08:18;7.78;;;5.35;;
38083;SDS011;23894;51.466;7.444;2024-02-04T11:10:20;7.68;;;4.93;;
38083;SDS011;23894;51.466;7.444;2024-02-04T11:12:21;8.70;;;5.43;;
38083;SDS011;23894;51.466;7.444;2024-02-04T11:14:25;8.15;;;5.30;;
38083;SDS011;23894;51.466;7.444;2024-02-04T11:21:03;7.80;;;4.65;;
38083;SDS011;23894;51.466;7.444;2024-02-04T11:25:46;7.57;;;4.30;;
38083;SDS011;23894;51.466;7.444;2024-02-04T11:27:49;6.57;;;4.18;;
38083;SDS011;23894;51.466;7.444;2024-02-04T11:29:50;7.20;;;4.18;;
38083;SDS011;23894;51.466;7.444;2024-02-04T11:31:51;7.05;;;3.72;;
38083;SDS011;23894;51.466;7.444;2024-02-04T11:33:52;8.02;;;4.28;;
38083;SDS011;23894;51.466;7.444;2024-02-04T11:36:04;6.53;;;3.83;;
38083;SDS011;23894;51.466;7.444;2024-02-04T11:38:05;6.63;;;3.80;;
38083;SDS011;23894;51.466;7.444;2024-02-04T11:40:06;6.90;;;3.35;;
38083;SDS011;23894;51.466;7.444;2024-02-04T11:42:13;6.80;;;3.60;;
38083;SDS011;23894;51.466;7.444;2024-02-04T11:44:26;6.07;;;3.08;;
38083;SDS011;23894;51.466;7.444;2024-02-04T11:46:27;6.60;;;3.20;;
38083;SDS011;23894;51.466;7.444;2024-02-04T11:48:29;7.22;;;3.40;;
38083;SDS011;23894;51.466;7.444;2024-02-04T11:50:31;6.25;;;3.50;;
38083;SDS011;23894;51.466;7.444;2024-02-04T11:52:33;6.05;;;3.88;;
38083;SDS011;23894;51.466;7.444;2024-02-04T11:54:34;5.90;;;3.33;;
38083;SDS011;23894;51.466;7.444;2024-02-04T11:56:39;5.65;;;3.25;;
38083;SDS011;23894;51.466;7.444;2024-02-04T11:58:41;5.57;;;2.90;;
38083;SDS011;23894;51.466;7.444;2024-02-04T12:00:42;7.40;;;3.15;;
38083;SDS011;23894;51.466;7.444;2024-02-04T12:02:45;7.07;;;3.17;;
38083;SDS011;23894;51.466;7.444;2024-02-04T12:04:46;5.80;;;3.33;;
38083;SDS011;23894;51.466;7.444;2024-02-04T12:06:47;6.20;;;2.43;;
38083;SDS011;23894;51.466;7.444;2024-02-04T12:08:48;4.65;;;2.30;;
38083;SDS011;23894;51.466;7.444;2024-02-04T12:10:50;4.95;;;2.40;;
38083;SDS011;23894;51.466;7.444;2024-02-04T12:12:51;4.60;;;2.10;;
38083;SDS011;23894;51.466;7.444;2024-02-04T12:14:56;4.32;;;2.08;;
38083;SDS011;23894;51.466;7.444;2024-02-04T12:16:57;4.90;;;2.50;;
38083;SDS011;23894;51.466;7.444;2024-02-04T12:18:59;5.40;;;2.85;;